createdAt,value
2018-09-12T00:00:26.976Z,13.40
2018-09-12T00:01:26.904Z,13.37
2018-09-12T00:02:26.820Z,13.37
2018-09-12T00:03:26.752Z,13.37
2018-09-12T00:04:26.669Z,13.38
2018-09-12T00:05:26.602Z,13.36
2018-09-12T00:06:26.516Z,13.36
2018-09-12T00:07:26.447Z,13.43
2018-09-12T00:08:26.365Z,13.27
2018-09-12T00:09:26.295Z,13.22
2018-09-12T00:10:26.221Z,13.06
2018-09-12T00:11:26.145Z,13.10
2018-09-12T00:12:26.058Z,12.92
2018-09-12T00:13:25.991Z,12.89
2018-09-12T00:14:25.904Z,12.86
2018-09-12T00:15:25.839Z,12.85
2018-09-12T00:16:25.753Z,12.85
2018-09-12T00:17:25.687Z,12.91
2018-09-12T00:18:25.600Z,12.85
2018-09-12T00:19:25.596Z,12.85
2018-09-12T00:20:25.448Z,12.77
2018-09-12T00:21:25.379Z,12.66
2018-09-12T00:22:25.297Z,12.60
2018-09-12T00:23:25.226Z,12.60
2018-09-12T00:24:25.148Z,12.59
2018-09-12T00:25:25.073Z,12.59
2018-09-12T00:26:24.992Z,12.56
2018-09-12T00:27:24.921Z,12.61
2018-09-12T00:28:24.846Z,12.64
2018-09-12T00:29:24.769Z,12.69
2018-09-12T00:30:24.684Z,12.71
2018-09-12T00:31:24.616Z,12.73
2018-09-12T00:32:24.535Z,12.81
2018-09-12T00:33:24.467Z,12.79
2018-09-12T00:34:24.386Z,12.85
2018-09-12T00:35:24.310Z,12.85
2018-09-12T00:36:24.228Z,12.84
2018-09-12T00:37:24.156Z,12.78
2018-09-12T00:38:24.074Z,12.77
2018-09-12T00:39:24.014Z,12.70
2018-09-12T00:40:23.919Z,12.64
2018-09-12T00:41:23.852Z,12.63
2018-09-12T00:42:23.771Z,12.59
2018-09-12T00:43:23.697Z,12.56
2018-09-12T00:44:23.615Z,12.44
2018-09-12T00:45:23.543Z,12.45
2018-09-12T00:46:23.464Z,12.52
2018-09-12T00:47:23.393Z,12.51
2018-09-12T00:48:23.309Z,12.46
2018-09-12T00:49:23.240Z,12.42
2018-09-12T00:50:23.154Z,12.27
2018-09-12T00:51:23.085Z,12.39
2018-09-12T00:52:23.004Z,12.41
2018-09-12T00:53:22.932Z,12.33
2018-09-12T00:54:22.853Z,12.46
2018-09-12T00:55:22.779Z,12.45
2018-09-12T00:56:22.695Z,12.55
2018-09-12T00:57:22.626Z,12.55
2018-09-12T00:58:22.542Z,12.63
2018-09-12T00:59:22.468Z,12.51
2018-09-12T01:00:22.387Z,12.64
2018-09-12T01:01:22.320Z,12.56
2018-09-12T01:02:22.235Z,12.59
2018-09-12T01:03:22.166Z,12.51
2018-09-12T01:04:22.084Z,12.45
2018-09-12T01:05:22.009Z,12.41
2018-09-12T01:06:21.931Z,12.31
2018-09-12T01:07:21.860Z,12.28
2018-09-12T01:08:21.773Z,12.24
2018-09-12T01:09:21.751Z,12.21
2018-09-12T01:10:21.620Z,12.26
2018-09-12T01:11:21.550Z,12.33
2018-09-12T01:12:21.465Z,12.26
2018-09-12T01:13:21.397Z,12.41
2018-09-12T01:14:21.313Z,12.39
2018-09-12T01:15:21.242Z,12.49
2018-09-12T01:16:21.162Z,12.55
2018-09-12T01:17:21.094Z,12.48
2018-09-12T01:18:21.007Z,12.49
2018-09-12T01:19:20.940Z,12.42
2018-09-12T01:20:20.852Z,12.42
2018-09-12T01:21:20.779Z,12.44
2018-09-12T01:22:20.700Z,12.42
2018-09-12T01:23:20.631Z,12.41
2018-09-12T01:24:20.549Z,12.39
2018-09-12T01:25:20.474Z,12.37
2018-09-12T01:26:20.391Z,12.34
2018-09-12T01:27:20.327Z,12.33
2018-09-12T01:28:20.245Z,12.28
2018-09-12T01:29:20.169Z,12.16
2018-09-12T01:30:20.085Z,12.18
2018-09-12T01:31:20.015Z,12.06
2018-09-12T01:32:19.932Z,12.05
2018-09-12T01:33:19.865Z,12.06
2018-09-12T01:34:19.777Z,12.11
2018-09-12T01:35:19.709Z,12.18
2018-09-12T01:36:19.622Z,12.05
2018-09-12T01:37:19.552Z,12.08
2018-09-12T01:38:19.471Z,12.09
2018-09-12T01:39:19.401Z,12.06
2018-09-12T01:40:19.315Z,12.03
2018-09-12T01:41:19.248Z,12.12
2018-09-12T01:42:19.163Z,12.11
2018-09-12T01:43:19.098Z,12.11
2018-09-12T01:44:19.007Z,12.00
2018-09-12T01:45:18.943Z,11.95
2018-09-12T01:46:18.853Z,12.05
2018-09-12T01:47:18.785Z,11.95
2018-09-12T01:48:18.699Z,12.02
2018-09-12T01:49:18.630Z,11.94
2018-09-12T01:50:18.547Z,11.97
2018-09-12T01:51:18.476Z,11.89
2018-09-12T01:52:18.392Z,11.81
2018-09-12T01:53:18.322Z,11.86
2018-09-12T01:54:18.240Z,11.79
2018-09-12T01:55:18.169Z,11.90
2018-09-12T01:56:18.081Z,11.93
2018-09-12T01:57:18.016Z,12.02
2018-09-12T01:58:17.931Z,12.02
2018-09-12T01:59:17.862Z,11.98
2018-09-12T02:00:17.776Z,11.94
2018-09-12T02:01:17.705Z,11.95
2018-09-12T02:02:17.623Z,11.98
2018-09-12T02:03:17.552Z,11.95
2018-09-12T02:04:17.468Z,12.05
2018-09-12T02:05:17.403Z,11.90
2018-09-12T02:06:17.314Z,11.93
2018-09-12T02:07:17.256Z,11.94
2018-09-12T02:08:17.161Z,11.90
2018-09-12T02:09:17.092Z,11.86
2018-09-12T02:10:17.003Z,11.81
2018-09-12T02:11:16.936Z,11.87
2018-09-12T02:12:16.849Z,11.74
2018-09-12T02:13:16.780Z,11.86
2018-09-12T02:14:16.699Z,11.75
2018-09-12T02:15:16.628Z,11.81
2018-09-12T02:16:16.548Z,11.84
2018-09-12T02:17:16.476Z,11.83
2018-09-12T02:18:16.391Z,11.84
2018-09-12T02:19:16.319Z,11.89
2018-09-12T02:20:16.236Z,11.84
2018-09-12T02:21:16.164Z,11.86
2018-09-12T02:22:16.080Z,11.83
2018-09-12T02:23:16.014Z,11.78
2018-09-12T02:24:15.925Z,11.83
2018-09-12T02:25:15.852Z,11.76
2018-09-12T02:26:15.772Z,11.87
2018-09-12T02:27:15.704Z,11.93
2018-09-12T02:28:15.621Z,11.97
2018-09-12T02:29:15.548Z,11.94
2018-09-12T02:30:15.464Z,11.90
2018-09-12T02:31:15.397Z,11.90
2018-09-12T02:32:15.311Z,11.86
2018-09-12T02:33:15.240Z,11.95
2018-09-12T02:34:15.157Z,11.97
2018-09-12T02:35:15.086Z,11.95
2018-09-12T02:36:14.998Z,11.94
2018-09-12T02:37:14.931Z,11.95
2018-09-12T02:38:14.847Z,11.79
2018-09-12T02:39:14.779Z,11.89
2018-09-12T02:40:14.693Z,11.87
2018-09-12T02:41:14.623Z,11.89
2018-09-12T02:42:14.540Z,11.95
2018-09-12T02:43:14.467Z,11.93
2018-09-12T02:44:14.390Z,11.87
2018-09-12T02:45:14.314Z,12.02
2018-09-12T02:46:14.230Z,11.94
2018-09-12T02:47:14.163Z,11.90
2018-09-12T02:48:14.076Z,11.97
2018-09-12T02:49:14.059Z,12.00
2018-09-12T02:50:13.924Z,11.97
2018-09-12T02:51:13.852Z,11.84
2018-09-12T02:52:13.767Z,11.90
2018-09-12T02:53:13.696Z,11.76
2018-09-12T02:54:13.606Z,11.83
2018-09-12T02:55:13.542Z,11.89
2018-09-12T02:56:13.464Z,11.67
2018-09-12T02:57:13.385Z,11.72
2018-09-12T02:58:13.303Z,11.74
2018-09-12T02:59:13.235Z,11.68
2018-09-12T03:00:13.148Z,11.68
2018-09-12T03:01:13.077Z,11.60
2018-09-12T03:02:12.995Z,11.67
2018-09-12T03:03:12.929Z,11.65
2018-09-12T03:04:12.836Z,11.71
2018-09-12T03:05:12.769Z,11.76
2018-09-12T03:06:12.685Z,11.78
2018-09-12T03:07:12.616Z,11.78
2018-09-12T03:08:12.528Z,11.81
2018-09-12T03:09:12.459Z,11.86
2018-09-12T03:10:12.376Z,11.87
2018-09-12T03:11:12.304Z,11.78
2018-09-12T03:12:12.220Z,11.78
2018-09-12T03:13:12.153Z,11.84
2018-09-12T03:14:12.066Z,11.83
2018-09-12T03:15:11.998Z,11.94
2018-09-12T03:16:11.917Z,12.00
2018-09-12T03:17:11.844Z,11.95
2018-09-12T03:18:11.757Z,11.97
2018-09-12T03:19:11.687Z,11.93
2018-09-12T03:20:11.604Z,11.97
2018-09-12T03:21:11.598Z,12.00
2018-09-12T03:22:11.447Z,11.90
2018-09-12T03:23:11.378Z,12.02
2018-09-12T03:24:11.293Z,11.95
2018-09-12T03:25:12.224Z,11.98
2018-09-12T03:26:11.143Z,11.93
2018-09-12T03:27:11.082Z,11.95
2018-09-12T03:28:10.987Z,11.89
2018-09-12T03:29:10.914Z,11.93
2018-09-12T03:30:10.830Z,11.89
2018-09-12T03:31:10.758Z,11.79
2018-09-12T03:32:10.678Z,11.78
2018-09-12T03:33:10.606Z,11.74
2018-09-12T03:34:10.524Z,11.79
2018-09-12T03:35:10.457Z,11.86
2018-09-12T03:36:10.367Z,11.78
2018-09-12T03:37:10.297Z,11.74
2018-09-12T03:38:10.214Z,11.72
2018-09-12T03:39:10.151Z,11.68
2018-09-12T03:40:10.060Z,11.61
2018-09-12T03:41:09.987Z,11.51
2018-09-12T03:42:09.901Z,11.39
2018-09-12T03:43:09.834Z,11.36
2018-09-12T03:44:09.748Z,11.35
2018-09-12T03:45:09.679Z,11.34
2018-09-12T03:46:09.593Z,11.24
2018-09-12T03:47:09.524Z,11.35
2018-09-12T03:48:09.478Z,11.28
2018-09-12T03:49:09.360Z,11.28
2018-09-12T03:50:09.399Z,11.28
2018-09-12T03:51:09.207Z,11.23
2018-09-12T03:52:09.206Z,11.16
2018-09-12T03:53:09.054Z,11.17
2018-09-12T03:54:09.016Z,11.20
2018-09-12T03:55:08.898Z,11.18
2018-09-12T03:56:08.930Z,11.26
2018-09-12T03:57:08.741Z,11.28
2018-09-12T03:58:08.736Z,11.26
2018-09-12T03:59:08.590Z,11.17
2018-09-12T04:00:08.515Z,11.21
2018-09-12T04:01:08.431Z,11.16
2018-09-12T04:02:08.360Z,11.13
2018-09-12T04:03:08.277Z,11.14
2018-09-12T04:04:08.211Z,11.05
2018-09-12T04:05:08.122Z,10.99
2018-09-12T04:06:08.054Z,11.05
2018-09-12T04:07:07.971Z,10.99
2018-09-12T04:08:07.900Z,11.10
2018-09-12T04:09:07.811Z,11.14
2018-09-12T04:10:07.746Z,11.11
2018-09-12T04:11:07.657Z,11.11
2018-09-12T04:12:07.588Z,11.02
2018-09-12T04:13:07.504Z,11.03
2018-09-12T04:14:08.450Z,11.03
2018-09-12T04:15:07.347Z,11.06
2018-09-12T04:16:07.276Z,11.00
2018-09-12T04:17:07.192Z,11.00
2018-09-12T04:18:07.125Z,10.98
2018-09-12T04:19:07.037Z,11.03
2018-09-12T04:20:06.967Z,11.02
2018-09-12T04:21:06.882Z,11.11
2018-09-12T04:22:06.813Z,11.06
2018-09-12T04:23:06.726Z,11.06
2018-09-12T04:24:06.720Z,11.13
2018-09-12T04:25:06.572Z,11.13
2018-09-12T04:26:06.500Z,11.10
2018-09-12T04:27:06.415Z,11.08
2018-09-12T04:28:06.348Z,11.17
2018-09-12T04:29:06.262Z,11.21
2018-09-12T04:30:06.195Z,11.17
2018-09-12T04:31:06.106Z,11.26
2018-09-12T04:32:06.035Z,11.31
2018-09-12T04:33:05.958Z,11.31
2018-09-12T04:34:05.880Z,11.41
2018-09-12T04:35:05.800Z,11.29
2018-09-12T04:36:05.725Z,11.41
2018-09-12T04:37:05.643Z,11.38
2018-09-12T04:38:05.565Z,11.41
2018-09-12T04:39:05.491Z,11.47
2018-09-12T04:40:05.409Z,11.50
2018-09-12T04:41:05.341Z,11.42
2018-09-12T04:42:05.252Z,11.50
2018-09-12T04:43:05.175Z,11.42
2018-09-12T04:44:05.094Z,11.41
2018-09-12T04:45:05.025Z,11.34
2018-09-12T04:46:04.950Z,11.39
2018-09-12T04:47:04.867Z,11.32
2018-09-12T04:48:04.793Z,11.35
2018-09-12T04:49:04.709Z,11.28
2018-09-12T04:50:04.638Z,11.31
2018-09-12T04:51:04.553Z,11.23
2018-09-12T04:52:06.129Z,11.16
2018-09-12T04:53:04.398Z,11.26
2018-09-12T04:54:04.398Z,11.18
2018-09-12T04:55:04.246Z,11.14
2018-09-12T04:56:04.210Z,11.17
2018-09-12T04:57:04.087Z,11.17
2018-09-12T04:58:04.115Z,11.11
2018-09-12T04:59:03.934Z,11.13
2018-09-12T05:00:03.925Z,11.18
2018-09-12T05:01:03.778Z,11.08
2018-09-12T05:02:03.733Z,11.13
2018-09-12T05:03:03.626Z,11.14
2018-09-12T05:04:03.652Z,11.13
2018-09-12T05:05:03.468Z,11.18
2018-09-12T05:06:03.463Z,11.14
2018-09-12T05:07:03.312Z,11.11
2018-09-12T05:08:03.263Z,11.03
2018-09-12T05:09:03.164Z,11.05
2018-09-12T05:10:03.177Z,11.02
2018-09-12T05:11:03.004Z,11.06
2018-09-12T05:12:02.980Z,11.08
2018-09-12T05:13:02.844Z,11.11
2018-09-12T05:14:02.788Z,11.06
2018-09-12T05:15:02.690Z,11.10
2018-09-12T05:16:02.773Z,11.16
2018-09-12T05:17:02.538Z,11.13
2018-09-12T05:18:02.468Z,11.16
2018-09-12T05:19:02.380Z,11.17
2018-09-12T05:20:02.310Z,11.17
2018-09-12T05:21:02.225Z,11.18
2018-09-12T05:22:02.158Z,11.21
2018-09-12T05:23:02.069Z,11.24
2018-09-12T05:24:01.996Z,11.16
2018-09-12T05:25:01.915Z,11.17
2018-09-12T05:26:01.845Z,11.29
2018-09-12T05:27:01.766Z,11.16
2018-09-12T05:28:01.688Z,11.26
2018-09-12T05:29:01.601Z,11.36
2018-09-12T05:30:01.599Z,11.31
2018-09-12T05:31:01.447Z,11.26
2018-09-12T05:32:01.375Z,11.28
2018-09-12T05:33:01.295Z,11.32
2018-09-12T05:34:01.222Z,11.34
2018-09-12T05:35:01.144Z,11.36
2018-09-12T05:36:01.066Z,11.41
2018-09-12T05:37:00.982Z,11.46
2018-09-12T05:38:00.912Z,11.43
2018-09-12T05:39:00.830Z,11.54
2018-09-12T05:40:00.756Z,11.53
2018-09-12T05:41:00.671Z,11.47
2018-09-12T05:42:00.604Z,11.54
2018-09-12T05:43:00.522Z,11.59
2018-09-12T05:44:00.448Z,11.54
2018-09-12T05:45:00.368Z,11.59
2018-09-12T05:46:00.291Z,11.65
2018-09-12T05:47:00.207Z,11.79
2018-09-12T05:48:00.134Z,11.76
2018-09-12T05:49:00.051Z,11.86
2018-09-12T05:50:00.020Z,11.76
2018-09-12T05:50:59.902Z,11.95
2018-09-12T05:51:59.824Z,12.02
2018-09-12T05:52:59.743Z,11.97
2018-09-12T05:53:59.674Z,12.08
2018-09-12T05:54:59.588Z,12.05
2018-09-12T05:55:59.515Z,12.11
2018-09-12T05:56:59.425Z,12.21
2018-09-12T05:57:59.361Z,12.21
2018-09-12T05:58:59.280Z,12.30
2018-09-12T05:59:59.210Z,12.30
2018-09-12T06:00:59.120Z,12.24
2018-09-12T06:01:59.052Z,12.44
2018-09-12T06:02:58.966Z,12.55
2018-09-12T06:03:58.897Z,12.42
2018-09-12T06:04:58.811Z,12.48
2018-09-12T06:05:58.742Z,12.53
2018-09-12T06:06:58.766Z,12.64
2018-09-12T06:07:58.587Z,12.66
2018-09-12T06:08:58.502Z,12.52
2018-09-12T06:09:58.431Z,12.59
2018-09-12T06:10:58.349Z,12.69
2018-09-12T06:11:58.281Z,12.67
2018-09-12T06:12:58.192Z,12.70
2018-09-12T06:13:58.132Z,12.84
2018-09-12T06:14:58.036Z,12.88
2018-09-12T06:15:57.968Z,12.88
2018-09-12T06:16:57.889Z,13.02
2018-09-12T06:17:57.815Z,12.97
2018-09-12T06:18:57.730Z,13.03
2018-09-12T06:19:57.656Z,13.11
2018-09-12T06:20:57.574Z,13.17
2018-09-12T06:21:57.506Z,13.18
2018-09-12T06:22:57.419Z,13.18
2018-09-12T06:23:57.350Z,13.22
2018-09-12T06:24:57.268Z,13.19
2018-09-12T06:25:57.195Z,13.25
2018-09-12T06:26:57.111Z,13.36
2018-09-12T06:27:57.041Z,13.37
2018-09-12T06:28:56.956Z,13.45
2018-09-12T06:29:56.890Z,13.47
2018-09-12T06:30:56.810Z,13.53
2018-09-12T06:31:56.732Z,13.62
2018-09-12T06:32:56.647Z,13.65
2018-09-12T06:33:56.576Z,13.62
2018-09-12T06:34:56.497Z,13.58
2018-09-12T06:35:56.424Z,13.68
2018-09-12T06:36:56.340Z,13.76
2018-09-12T06:37:56.318Z,13.66
2018-09-12T06:38:56.186Z,13.81
2018-09-12T06:39:56.117Z,13.89
2018-09-12T06:40:56.033Z,13.91
2018-09-12T06:41:55.968Z,14.02
2018-09-12T06:42:55.878Z,14.05
2018-09-12T06:43:55.812Z,14.14
2018-09-12T06:44:55.725Z,14.20
2018-09-12T06:45:55.653Z,14.27
2018-09-12T06:46:55.566Z,14.39
2018-09-12T06:47:55.500Z,14.35
2018-09-12T06:48:55.414Z,14.34
2018-09-12T06:49:55.347Z,14.54
2018-09-12T06:50:55.261Z,14.57
2018-09-12T06:51:55.196Z,14.68
2018-09-12T06:52:55.115Z,14.69
2018-09-12T06:53:55.042Z,14.84
2018-09-12T06:54:54.959Z,14.87
2018-09-12T06:55:54.887Z,14.83
2018-09-12T06:56:54.802Z,15.08
2018-09-12T06:57:54.735Z,15.06
2018-09-12T06:58:54.643Z,15.20
2018-09-12T06:59:54.583Z,15.38
2018-09-12T07:00:54.511Z,15.46
2018-09-12T07:01:54.429Z,15.49
2018-09-12T07:02:54.345Z,15.51
2018-09-12T07:03:54.276Z,15.60
2018-09-12T07:04:54.190Z,15.61
2018-09-12T07:05:54.123Z,15.63
2018-09-12T07:06:54.037Z,15.73
2018-09-12T07:07:53.969Z,15.86
2018-09-12T07:08:53.890Z,16.01
2018-09-12T07:09:53.817Z,16.12
2018-09-12T07:10:53.738Z,16.22
2018-09-12T07:11:53.663Z,16.35
2018-09-12T07:12:53.578Z,16.44
2018-09-12T07:13:53.514Z,16.45
2018-09-12T07:14:53.425Z,16.66
2018-09-12T07:15:53.360Z,16.67
2018-09-12T07:16:53.278Z,16.85
2018-09-12T07:17:53.207Z,16.96
2018-09-12T07:18:53.127Z,17.02
2018-09-12T07:19:53.056Z,17.17
2018-09-12T07:20:52.972Z,17.23
2018-09-12T07:21:52.912Z,17.48
2018-09-12T07:22:52.820Z,17.63
2018-09-12T07:23:52.755Z,17.67
2018-09-12T07:24:52.675Z,17.76
2018-09-12T07:25:52.601Z,17.91
2018-09-12T07:26:52.519Z,18.09
2018-09-12T07:27:52.452Z,18.11
2018-09-12T07:28:52.369Z,18.27
2018-09-12T07:29:52.299Z,18.43
2018-09-12T07:30:52.218Z,18.57
2018-09-12T07:31:52.146Z,18.76
2018-09-12T07:32:52.066Z,18.82
2018-09-12T07:33:52.004Z,18.99
2018-09-12T07:34:51.918Z,19.17
2018-09-12T07:35:51.852Z,19.35
2018-09-12T07:36:51.768Z,19.36
2018-09-12T07:37:51.698Z,19.48
2018-09-12T07:38:51.618Z,19.71
2018-09-12T07:39:51.548Z,19.78
2018-09-12T07:40:51.467Z,19.95
2018-09-12T07:41:51.403Z,20.10
2018-09-12T07:42:51.322Z,20.19
2018-09-12T07:43:51.252Z,20.50
2018-09-12T07:44:51.171Z,20.50
2018-09-12T07:45:51.101Z,20.72
2018-09-12T07:46:51.025Z,20.98
2018-09-12T07:47:50.952Z,21.06
2018-09-12T07:48:50.874Z,21.16
2018-09-12T07:49:50.881Z,21.36
2018-09-12T07:50:50.726Z,21.42
2018-09-12T07:51:50.698Z,21.53
2018-09-12T07:52:50.578Z,21.61
2018-09-12T07:53:50.601Z,21.82
2018-09-12T07:54:50.431Z,21.95
2018-09-12T07:55:50.508Z,21.97
2018-09-12T07:56:50.289Z,22.12
2018-09-12T07:57:50.224Z,22.16
2018-09-12T07:58:50.137Z,22.30
2018-09-12T07:59:50.073Z,22.42
2018-09-12T08:00:49.993Z,22.50
2018-09-12T08:01:49.927Z,22.57
2018-09-12T08:02:49.843Z,22.63
2018-09-12T08:03:49.778Z,22.75
2018-09-12T08:04:49.699Z,22.90
2018-09-12T08:05:49.633Z,23.05
2018-09-12T08:06:49.553Z,23.20
2018-09-12T08:07:49.491Z,23.22
2018-09-12T08:08:49.410Z,23.40
2018-09-12T08:09:49.343Z,23.50
2018-09-12T08:10:49.262Z,23.58
2018-09-12T08:11:49.198Z,23.79
2018-09-12T08:12:49.120Z,23.82
2018-09-12T08:13:49.056Z,24.02
2018-09-12T08:14:48.980Z,24.16
2018-09-12T08:15:48.907Z,24.25
2018-09-12T08:16:48.851Z,24.44
2018-09-12T08:17:48.763Z,24.59
2018-09-12T08:18:48.741Z,24.60
2018-09-12T08:19:48.624Z,24.52
2018-09-12T08:20:48.544Z,24.75
2018-09-12T08:21:48.480Z,24.91
2018-09-12T08:22:48.402Z,24.90
2018-09-12T08:23:48.335Z,25.08
2018-09-12T08:24:48.258Z,25.20
2018-09-12T08:25:48.195Z,25.23
2018-09-12T08:26:48.124Z,25.28
2018-09-12T08:27:48.049Z,25.42
2018-09-12T08:28:47.975Z,25.55
2018-09-12T08:29:47.915Z,25.72
2018-09-12T08:30:47.833Z,25.79
2018-09-12T08:31:47.769Z,25.89
2018-09-12T08:32:47.691Z,25.86
2018-09-12T08:33:47.628Z,25.97
2018-09-12T08:34:47.551Z,26.12
2018-09-12T08:35:47.487Z,26.20
2018-09-12T08:36:47.410Z,26.31
2018-09-12T08:37:47.347Z,26.45
2018-09-12T08:38:47.272Z,26.55
2018-09-12T08:39:47.204Z,26.55
2018-09-12T08:40:47.127Z,26.49
2018-09-12T08:41:47.068Z,26.58
2018-09-12T08:42:46.990Z,26.69
2018-09-12T08:43:46.927Z,26.80
2018-09-12T08:44:46.849Z,26.86
2018-09-12T08:45:46.790Z,26.99
2018-09-12T08:46:46.712Z,27.07
2018-09-12T08:47:46.709Z,27.16
2018-09-12T08:48:46.572Z,27.20
2018-09-12T08:49:46.509Z,27.20
2018-09-12T08:50:46.438Z,27.34
2018-09-12T08:51:46.374Z,27.39
2018-09-12T08:52:46.304Z,27.50
2018-09-12T08:53:46.235Z,27.60
2018-09-12T08:54:46.159Z,27.64
2018-09-12T08:55:46.100Z,27.67
2018-09-12T08:56:46.027Z,27.76
2018-09-12T08:57:45.958Z,27.74
2018-09-12T08:58:45.881Z,27.82
2018-09-12T08:59:45.820Z,27.84
2018-09-12T09:00:45.742Z,27.82
2018-09-12T09:01:45.726Z,27.87
2018-09-12T09:02:45.611Z,27.87
2018-09-12T09:03:45.549Z,28.06
2018-09-12T09:04:45.474Z,28.11
2018-09-12T09:05:45.409Z,28.22
2018-09-12T09:06:45.333Z,28.20
2018-09-12T09:07:45.272Z,28.41
2018-09-12T09:08:45.197Z,28.51
2018-09-12T09:09:45.137Z,28.54
2018-09-12T09:10:45.074Z,28.59
2018-09-12T09:11:44.997Z,28.62
2018-09-12T09:12:44.924Z,28.54
2018-09-12T09:13:44.871Z,28.62
2018-09-12T09:14:44.790Z,28.53
2018-09-12T09:15:44.729Z,28.63
2018-09-12T09:16:44.655Z,28.66
2018-09-12T09:17:44.597Z,28.68
2018-09-12T09:18:44.520Z,28.80
2018-09-12T09:19:44.460Z,28.96
2018-09-12T09:20:44.382Z,29.04
2018-09-12T09:21:44.324Z,29.13
2018-09-12T09:22:44.261Z,29.14
2018-09-12T09:23:44.291Z,29.21
2018-09-12T09:24:44.117Z,29.11
2018-09-12T09:25:44.053Z,29.16
2018-09-12T09:26:43.981Z,29.23
2018-09-12T09:27:43.923Z,29.31
2018-09-12T09:28:43.847Z,29.36
2018-09-12T09:29:43.791Z,29.40
2018-09-12T09:30:43.714Z,29.53
2018-09-12T09:31:43.652Z,29.63
2018-09-12T09:32:43.648Z,29.63
2018-09-12T09:33:43.520Z,29.68
2018-09-12T09:34:43.452Z,29.80
2018-09-12T09:35:43.594Z,29.93
2018-09-12T09:36:43.312Z,30.11
2018-09-12T09:37:43.255Z,30.12
2018-09-12T09:38:43.179Z,30.12
2018-09-12T09:39:43.121Z,30.15
2018-09-12T09:40:43.044Z,30.22
2018-09-12T09:41:42.990Z,30.26
2018-09-12T09:42:42.952Z,30.06
2018-09-12T09:43:42.855Z,30.12
2018-09-12T09:44:42.788Z,30.02
2018-09-12T09:45:42.722Z,30.15
2018-09-12T09:46:42.649Z,30.18
2018-09-12T09:47:42.591Z,30.34
2018-09-12T09:48:42.519Z,30.37
2018-09-12T09:49:42.461Z,30.37
2018-09-12T09:50:42.387Z,30.36
2018-09-12T09:51:42.320Z,30.37
2018-09-12T09:52:42.313Z,30.49
2018-09-12T09:53:42.188Z,30.43
2018-09-12T09:54:42.242Z,30.36
2018-09-12T09:55:42.057Z,30.49
2018-09-12T09:56:42.032Z,30.46
2018-09-12T09:57:41.926Z,30.53
2018-09-12T09:58:41.942Z,30.56
2018-09-12T09:59:41.793Z,30.62
2018-09-12T10:00:41.730Z,30.64
2018-09-12T10:01:41.663Z,30.64
2018-09-12T10:02:41.664Z,30.72
2018-09-12T10:03:41.532Z,30.77
2018-09-12T10:04:41.499Z,30.75
2018-09-12T10:05:41.408Z,30.70
2018-09-12T10:06:41.339Z,30.64
2018-09-12T10:07:41.271Z,30.68
2018-09-12T10:08:41.295Z,30.62
2018-09-12T10:09:41.140Z,30.78
2018-09-12T10:10:41.104Z,30.79
2018-09-12T10:11:41.040Z,30.78
2018-09-12T10:12:41.016Z,30.75
2018-09-12T10:13:40.878Z,30.72
2018-09-12T10:14:40.931Z,30.81
2018-09-12T10:15:40.747Z,30.85
2018-09-12T10:16:40.742Z,30.85
2018-09-12T10:17:40.618Z,30.89
2018-09-12T10:18:40.649Z,30.87
2018-09-12T10:19:40.487Z,30.90
2018-09-12T10:20:40.457Z,30.99
2018-09-12T10:21:40.356Z,31.01
2018-09-12T10:22:40.369Z,30.99
2018-09-12T10:23:40.227Z,31.01
2018-09-12T10:24:40.280Z,30.99
2018-09-12T10:25:40.092Z,31.02
2018-09-12T10:26:40.090Z,30.96
2018-09-12T10:27:39.972Z,30.93
2018-09-12T10:28:39.999Z,31.07
2018-09-12T10:29:39.840Z,31.02
2018-09-12T10:30:39.810Z,30.93
2018-09-12T10:31:39.709Z,30.97
2018-09-12T10:32:39.721Z,31.14
2018-09-12T10:33:39.583Z,31.29
2018-09-12T10:34:39.632Z,31.30
2018-09-12T10:35:39.451Z,31.36
2018-09-12T10:36:39.443Z,31.36
2018-09-12T10:37:39.322Z,31.45
2018-09-12T10:38:39.353Z,31.45
2018-09-12T10:39:39.192Z,31.49
2018-09-12T10:40:39.163Z,31.52
2018-09-12T10:41:39.059Z,31.64
2018-09-12T10:42:39.077Z,31.64
2018-09-12T10:43:38.933Z,31.68
2018-09-12T10:44:38.987Z,31.68
2018-09-12T10:45:38.807Z,31.68
2018-09-12T10:46:38.796Z,31.52
2018-09-12T10:47:38.717Z,31.42
2018-09-12T10:48:38.707Z,31.49
2018-09-12T10:49:38.545Z,31.51
2018-09-12T10:50:38.516Z,31.58
2018-09-12T10:51:38.419Z,31.52
2018-09-12T10:52:38.354Z,31.63
2018-09-12T10:53:38.290Z,31.68
2018-09-12T10:54:38.337Z,31.64
2018-09-12T10:55:38.161Z,31.60
2018-09-12T10:56:38.148Z,31.70
2018-09-12T10:57:38.032Z,31.70
2018-09-12T10:58:38.059Z,31.64
2018-09-12T10:59:37.904Z,31.57
2018-09-12T11:00:37.869Z,31.52
2018-09-12T11:01:37.776Z,31.49
2018-09-12T11:02:37.780Z,31.53
2018-09-12T11:03:37.648Z,31.45
2018-09-12T11:04:37.694Z,31.52
2018-09-12T11:05:37.523Z,31.44
2018-09-12T11:06:37.509Z,31.48
2018-09-12T11:07:37.391Z,31.53
2018-09-12T11:08:37.413Z,31.67
2018-09-12T11:09:37.326Z,31.66
2018-09-12T11:10:37.198Z,31.80
2018-09-12T11:11:37.231Z,31.70
2018-09-12T11:12:37.065Z,31.64
2018-09-12T11:13:37.040Z,31.55
2018-09-12T11:14:36.942Z,31.58
2018-09-12T11:15:36.949Z,31.67
2018-09-12T11:16:36.816Z,31.75
2018-09-12T11:17:36.862Z,31.89
2018-09-12T11:18:36.686Z,31.94
2018-09-12T11:19:36.668Z,31.91
2018-09-12T11:20:36.557Z,31.98
2018-09-12T11:21:36.581Z,32.09
2018-09-12T11:22:36.437Z,32.05
2018-09-12T11:23:36.389Z,32.09
2018-09-12T11:24:36.302Z,32.25
2018-09-12T11:25:36.299Z,32.25
2018-09-12T11:26:36.176Z,31.90
2018-09-12T11:27:36.210Z,31.80
2018-09-12T11:28:36.046Z,31.89
2018-09-12T11:29:36.024Z,31.94
2018-09-12T11:30:35.919Z,31.95
2018-09-12T11:31:35.931Z,32.03
2018-09-12T11:32:35.790Z,32.17
2018-09-12T11:33:35.844Z,32.21
2018-09-12T11:34:35.666Z,32.18
2018-09-12T11:35:35.654Z,32.21
2018-09-12T11:36:35.531Z,32.17
2018-09-12T11:37:35.473Z,32.08
2018-09-12T11:38:35.469Z,32.11
2018-09-12T11:39:35.343Z,32.11
2018-09-12T11:40:35.380Z,32.11
2018-09-12T11:41:35.217Z,32.21
2018-09-12T11:42:35.189Z,32.20
2018-09-12T11:43:35.090Z,32.20
2018-09-12T11:44:35.102Z,32.24
2018-09-12T11:45:34.961Z,32.40
2018-09-12T11:46:35.011Z,32.35
2018-09-12T11:47:34.836Z,32.33
2018-09-12T11:48:34.825Z,32.27
2018-09-12T11:49:34.708Z,32.28
2018-09-12T11:50:34.732Z,32.35
2018-09-12T11:51:34.584Z,32.36
2018-09-12T11:52:34.541Z,32.43
2018-09-12T11:53:34.454Z,32.39
2018-09-12T11:54:34.454Z,32.13
2018-09-12T11:55:34.391Z,32.11
2018-09-12T11:56:34.264Z,32.16
2018-09-12T11:57:34.267Z,32.20
2018-09-12T11:58:34.135Z,32.18
2018-09-12T11:59:34.178Z,32.25
2018-09-12T12:00:34.009Z,32.05
2018-09-12T12:01:33.990Z,31.86
2018-09-12T12:02:33.881Z,31.63
2018-09-12T12:03:33.905Z,31.33
2018-09-12T12:04:33.755Z,31.24
2018-09-12T12:05:33.812Z,31.26
2018-09-12T12:06:33.632Z,31.41
2018-09-12T12:07:33.622Z,31.44
2018-09-12T12:08:33.506Z,31.53
2018-09-12T12:09:33.533Z,31.68
2018-09-12T12:10:33.377Z,31.79
2018-09-12T12:11:33.345Z,31.95
2018-09-12T12:12:33.247Z,32.08
2018-09-12T12:13:33.252Z,32.17
2018-09-12T12:14:33.119Z,32.25
2018-09-12T12:15:33.173Z,32.40
2018-09-12T12:16:33.016Z,32.54
2018-09-12T12:17:32.938Z,32.60
2018-09-12T12:18:32.865Z,32.61
2018-09-12T12:19:32.889Z,32.62
2018-09-12T12:20:32.739Z,32.69
2018-09-12T12:21:32.676Z,32.50
2018-09-12T12:22:32.703Z,32.51
2018-09-12T12:23:32.553Z,32.54
2018-09-12T12:24:32.511Z,32.47
2018-09-12T12:25:32.423Z,32.57
2018-09-12T12:26:32.424Z,32.47
2018-09-12T12:27:32.303Z,32.67
2018-09-12T12:28:32.336Z,32.64
2018-09-12T12:29:32.169Z,32.75
2018-09-12T12:30:32.144Z,32.67
2018-09-12T12:31:32.047Z,32.76
2018-09-12T12:32:32.054Z,32.80
2018-09-12T12:33:31.915Z,32.89
2018-09-12T12:34:31.965Z,33.01
2018-09-12T12:35:31.798Z,33.01
2018-09-12T12:36:31.771Z,33.16
2018-09-12T12:37:31.666Z,33.19
2018-09-12T12:38:31.685Z,33.16
2018-09-12T12:39:31.537Z,33.16
2018-09-12T12:40:31.497Z,33.17
2018-09-12T12:41:31.411Z,33.13
2018-09-12T12:42:31.409Z,33.02
2018-09-12T12:43:31.288Z,32.84
2018-09-12T12:44:31.318Z,32.88
2018-09-12T12:45:31.221Z,32.91
2018-09-12T12:46:31.131Z,32.92
2018-09-12T12:47:31.029Z,32.94
2018-09-12T12:48:31.038Z,32.94
2018-09-12T12:49:30.911Z,32.94
2018-09-12T12:50:30.950Z,32.84
2018-09-12T12:51:30.781Z,33.01